YPXM

Details ICAO YPXM (XCH)
Name Christmas Island
Region Australia
Timezone Indian/Christmas (UTC+7.0)
Plans Departing 35
Arriving 47
Stats Elevation 916 ft / 279 m (AMSL)
Location -10.450215° 105.690929°
Runways 1
Magnetic Variation 0.382° E
Sunrise 2018-05-27 23:08:51 UTC / 2018-05-28 06:08:51 Local
Sunset 2018-05-28 10:42:59 UTC / 2018-05-28 17:42:59 Local
Advertisement - Login to hide

Runways

ID Width Length Bearing (true) Bearing (mag) Surface Threshold Offset Overrun Length
18 148 ft / 45 m 6,935 ft / 2,114 m 175.52° 175.14° Asphalt 0 ft / 0 m 203 ft / 62 m
36 148 ft / 45 m 6,935 ft / 2,114 m 355.52° 355.14° Asphalt 0 ft / 0 m 203 ft / 62 m

Map

Weather


0- 5 10 15 20 25 30 35+ Temperature / ° C

Clouds and Precipitation
Forecast for 2018-05-27 18:00 UTC. Updated 30 minutes ago

Ground ~20,000 ft ~40,000 ft Winds

METAR

YPXM 271730Z AUTO 10011KT 9999 // SCT015 BKN021 25/21 Q1014

TAF

Not found

Frequencies

Unicom 122.80 MHz CTAF
Warning: Do not use this data for real-world aviation or navigation. No guarantee of current accuracy is given.